createdAt,value
2023-05-14T00:00:30.222Z,0.00
2023-05-14T00:01:30.232Z,0.00
2023-05-14T00:02:30.282Z,0.00
2023-05-14T00:03:30.334Z,0.00
2023-05-14T00:04:30.211Z,0.00
2023-05-14T00:05:30.188Z,0.00
2023-05-14T00:06:30.155Z,0.00
2023-05-14T00:07:30.147Z,0.00
2023-05-14T00:08:30.144Z,0.00
2023-05-14T00:09:30.142Z,0.00
2023-05-14T00:10:30.181Z,0.00
2023-05-14T00:11:30.155Z,0.00
2023-05-14T00:12:30.127Z,0.00
2023-05-14T00:13:30.087Z,0.00
2023-05-14T00:14:30.079Z,0.00
2023-05-14T00:15:31.762Z,0.00
2023-05-14T00:16:30.218Z,0.00
2023-05-14T00:17:30.088Z,0.00
2023-05-14T00:18:30.079Z,0.00
2023-05-14T00:19:30.047Z,0.00
2023-05-14T00:20:30.057Z,0.00
2023-05-14T00:21:30.036Z,0.00
2023-05-14T00:22:29.996Z,0.00
2023-05-14T00:23:29.991Z,0.00
2023-05-14T00:24:30.009Z,0.00
2023-05-14T00:25:29.998Z,0.00
2023-05-14T00:26:29.966Z,0.00
2023-05-14T00:27:29.957Z,0.00
2023-05-14T00:28:29.930Z,0.00
2023-05-14T00:29:29.960Z,0.00
2023-05-14T00:30:29.970Z,0.00
2023-05-14T00:31:30.007Z,0.00
2023-05-14T00:32:29.934Z,0.00
2023-05-14T00:33:29.892Z,0.00
2023-05-14T00:34:29.935Z,0.00
2023-05-14T00:35:29.866Z,0.00
2023-05-14T00:36:29.883Z,0.00
2023-05-14T00:37:29.884Z,0.00
2023-05-14T00:38:29.832Z,0.00
2023-05-14T00:39:29.875Z,0.00
2023-05-14T00:40:29.823Z,0.00
2023-05-14T00:41:29.821Z,0.00
2023-05-14T00:42:29.798Z,0.00
2023-05-14T00:43:29.807Z,0.00
2023-05-14T00:44:29.833Z,0.00
2023-05-14T00:45:29.780Z,0.00
2023-05-14T00:46:29.815Z,0.00
2023-05-14T00:47:29.782Z,0.00
2023-05-14T00:48:29.769Z,0.00
2023-05-14T00:49:29.735Z,0.00
2023-05-14T00:50:29.728Z,0.00
2023-05-14T00:51:29.700Z,0.00
2023-05-14T00:52:29.709Z,0.00
2023-05-14T00:53:29.721Z,0.00
2023-05-14T00:54:29.691Z,0.00
2023-05-14T00:55:29.668Z,0.00
2023-05-14T00:56:29.651Z,0.00
2023-05-14T00:57:29.662Z,0.00
2023-05-14T00:58:29.724Z,0.00
2023-05-14T00:59:29.631Z,0.00
2023-05-14T01:00:29.618Z,0.00
2023-05-14T01:01:29.768Z,0.00
2023-05-14T01:02:29.728Z,0.00
2023-05-14T01:03:29.698Z,0.00
2023-05-14T01:04:29.581Z,0.00
2023-05-14T01:05:29.574Z,0.00
2023-05-14T01:06:29.550Z,0.00
2023-05-14T01:07:29.570Z,0.00
2023-05-14T01:08:29.533Z,0.00
2023-05-14T01:09:29.525Z,0.00
2023-05-14T01:10:29.542Z,0.00
2023-05-14T01:11:29.542Z,0.00
2023-05-14T01:12:29.557Z,0.00
2023-05-14T01:13:29.516Z,0.00
2023-05-14T01:14:29.488Z,0.00
2023-05-14T01:15:29.456Z,0.00
2023-05-14T01:16:29.528Z,0.00
2023-05-14T01:17:29.477Z,0.00
2023-05-14T01:18:29.491Z,0.00
2023-05-14T01:19:29.431Z,0.00
2023-05-14T01:20:29.411Z,0.00
2023-05-14T01:21:29.428Z,0.00
2023-05-14T01:22:29.416Z,0.00
2023-05-14T01:23:29.382Z,0.00
2023-05-14T01:24:29.398Z,0.00
2023-05-14T01:25:29.358Z,0.00
2023-05-14T01:26:29.378Z,0.00
2023-05-14T01:27:29.373Z,0.00
2023-05-14T01:28:29.356Z,0.00
2023-05-14T01:29:29.321Z,0.00
2023-05-14T01:30:29.340Z,0.00
2023-05-14T01:31:29.374Z,0.00
2023-05-14T01:32:29.330Z,0.00
2023-05-14T01:33:29.308Z,0.00
2023-05-14T01:34:29.323Z,0.00
2023-05-14T01:35:29.316Z,0.00
2023-05-14T01:36:29.263Z,0.00
2023-05-14T01:37:29.235Z,0.00
2023-05-14T01:38:29.249Z,0.00
2023-05-14T01:39:29.260Z,0.00
2023-05-14T01:40:29.252Z,0.00
2023-05-14T01:41:29.208Z,0.00
2023-05-14T01:42:29.211Z,0.00
2023-05-14T01:43:29.294Z,0.00
2023-05-14T01:44:29.198Z,0.00
2023-05-14T01:45:29.155Z,0.00
2023-05-14T01:46:29.233Z,0.00
2023-05-14T01:47:29.181Z,0.00
2023-05-14T01:48:29.135Z,0.00
2023-05-14T01:49:29.184Z,0.00
2023-05-14T01:50:29.122Z,0.00
2023-05-14T01:51:29.096Z,0.00
2023-05-14T01:52:29.091Z,0.00
2023-05-14T01:53:29.168Z,0.00
2023-05-14T01:54:29.116Z,0.00
2023-05-14T01:55:29.067Z,0.00
2023-05-14T01:56:29.055Z,0.00
2023-05-14T01:57:29.067Z,0.00
2023-05-14T01:58:29.061Z,0.00
2023-05-14T01:59:29.033Z,0.00
2023-05-14T02:00:29.017Z,0.00
2023-05-14T02:01:29.008Z,0.00
2023-05-14T02:02:29.011Z,0.00
2023-05-14T02:03:29.067Z,0.00
2023-05-14T02:04:28.977Z,0.00
2023-05-14T02:05:28.959Z,0.00
2023-05-14T02:06:28.948Z,0.00
2023-05-14T02:07:28.959Z,0.00
2023-05-14T02:08:28.966Z,0.00
2023-05-14T02:09:28.931Z,0.00
2023-05-14T02:10:28.907Z,0.00
2023-05-14T02:11:28.902Z,0.00
2023-05-14T02:12:28.920Z,0.00
2023-05-14T02:13:28.880Z,0.00
2023-05-14T02:14:28.902Z,0.00
2023-05-14T02:15:28.866Z,0.00
2023-05-14T02:16:28.889Z,0.00
2023-05-14T02:17:28.875Z,0.00
2023-05-14T02:18:28.860Z,0.00
2023-05-14T02:19:28.830Z,0.00
2023-05-14T02:20:28.812Z,0.00
2023-05-14T02:21:28.861Z,0.00
2023-05-14T02:22:28.822Z,0.00
2023-05-14T02:23:40.432Z,0.00
2023-05-14T02:24:28.783Z,0.00
2023-05-14T02:25:28.776Z,0.00
2023-05-14T02:26:28.783Z,0.00
2023-05-14T02:27:28.737Z,0.00
2023-05-14T02:28:28.745Z,0.00
2023-05-14T02:29:28.732Z,0.00
2023-05-14T02:30:28.715Z,0.00
2023-05-14T02:31:28.836Z,0.00
2023-05-14T02:32:28.809Z,0.00
2023-05-14T02:33:28.758Z,0.00
2023-05-14T02:34:28.679Z,0.00
2023-05-14T02:35:28.699Z,0.00
2023-05-14T02:36:28.675Z,0.00
2023-05-14T02:37:28.655Z,0.00
2023-05-14T02:38:28.637Z,0.00
2023-05-14T02:39:28.632Z,0.00
2023-05-14T02:40:28.676Z,0.00
2023-05-14T02:41:28.606Z,0.00
2023-05-14T02:42:28.612Z,0.00
2023-05-14T02:43:28.584Z,0.00
2023-05-14T02:44:28.596Z,0.00
2023-05-14T02:45:28.592Z,0.00
2023-05-14T02:46:28.596Z,0.00
2023-05-14T02:47:28.605Z,0.00
2023-05-14T02:48:28.535Z,0.00
2023-05-14T02:49:28.531Z,1.00
2023-05-14T02:50:28.549Z,0.00
2023-05-14T02:51:28.466Z,1.00
2023-05-14T02:52:28.444Z,1.00
2023-05-14T02:53:28.436Z,1.00
2023-05-14T02:54:28.455Z,1.00
2023-05-14T02:55:28.414Z,1.00
2023-05-14T02:56:28.429Z,2.00
2023-05-14T02:57:28.413Z,2.00
2023-05-14T02:58:28.684Z,2.00
2023-05-14T02:59:28.402Z,1.00
2023-05-14T03:00:28.380Z,1.00
2023-05-14T03:01:28.507Z,2.00
2023-05-14T03:02:28.425Z,2.00
2023-05-14T03:03:28.393Z,5.00
2023-05-14T03:04:28.324Z,3.00
2023-05-14T03:05:28.308Z,4.00
2023-05-14T03:06:28.304Z,4.00
2023-05-14T03:07:28.275Z,2.00
2023-05-14T03:08:28.329Z,3.00
2023-05-14T03:09:28.279Z,8.00
2023-05-14T03:10:28.268Z,7.00
2023-05-14T03:11:28.238Z,9.00
2023-05-14T03:12:28.279Z,10.00
2023-05-14T03:13:28.250Z,9.00
2023-05-14T03:14:28.237Z,12.00
2023-05-14T03:15:28.200Z,14.00
2023-05-14T03:16:28.223Z,18.00
2023-05-14T03:17:28.264Z,19.00
2023-05-14T03:18:28.224Z,19.00
2023-05-14T03:19:28.281Z,23.00
2023-05-14T03:20:28.184Z,24.00
2023-05-14T03:21:28.161Z,28.00
2023-05-14T03:22:28.206Z,34.00
2023-05-14T03:23:28.127Z,43.00
2023-05-14T03:24:28.173Z,44.00
2023-05-14T03:25:28.101Z,51.00
2023-05-14T03:26:28.169Z,61.00
2023-05-14T03:27:28.107Z,61.00
2023-05-14T03:28:28.075Z,70.00
2023-05-14T03:29:28.072Z,78.00
2023-05-14T03:30:28.112Z,88.00
2023-05-14T03:31:28.188Z,89.00
2023-05-14T03:32:28.078Z,103.00
2023-05-14T03:33:28.017Z,113.00
2023-05-14T03:34:28.045Z,124.00
2023-05-14T03:35:28.005Z,131.00
2023-05-14T03:36:28.019Z,144.00
2023-05-14T03:37:27.980Z,153.00
2023-05-14T03:38:27.985Z,169.00
2023-05-14T03:39:27.984Z,178.00
2023-05-14T03:40:27.993Z,193.00
2023-05-14T03:41:27.965Z,211.00
2023-05-14T03:42:27.939Z,225.00
2023-05-14T03:43:27.926Z,241.00
2023-05-14T03:44:27.919Z,257.00
2023-05-14T03:45:27.934Z,272.00
2023-05-14T03:46:27.943Z,280.00
2023-05-14T03:47:27.919Z,289.00
2023-05-14T03:48:28.101Z,307.00
2023-05-14T03:49:27.876Z,323.00
2023-05-14T03:50:27.916Z,342.00
2023-05-14T03:51:27.841Z,356.00
2023-05-14T03:52:27.837Z,376.00
2023-05-14T03:53:27.873Z,397.00
2023-05-14T03:54:27.824Z,414.00
2023-05-14T03:55:27.841Z,435.00
2023-05-14T03:56:27.810Z,466.00
2023-05-14T03:57:27.787Z,493.00
2023-05-14T03:58:27.786Z,515.00
2023-05-14T03:59:27.817Z,543.00
2023-05-14T04:00:27.792Z,572.00
2023-05-14T04:01:27.746Z,604.00
2023-05-14T04:02:27.798Z,637.00
2023-05-14T04:03:27.912Z,670.00
2023-05-14T04:04:27.767Z,698.00
2023-05-14T04:05:27.706Z,717.00
2023-05-14T04:06:27.693Z,740.00
2023-05-14T04:07:27.679Z,779.00
2023-05-14T04:08:27.677Z,807.00
2023-05-14T04:09:27.686Z,841.00
2023-05-14T04:10:27.654Z,860.00
2023-05-14T04:11:27.632Z,892.00
2023-05-14T04:12:27.624Z,922.00
2023-05-14T04:13:27.649Z,955.00
2023-05-14T04:14:27.661Z,998.00
2023-05-14T04:15:27.600Z,1031.00
2023-05-14T04:16:27.639Z,1034.00
2023-05-14T04:17:27.659Z,1058.00
2023-05-14T04:18:27.647Z,1156.00
2023-05-14T04:19:27.562Z,1225.00
2023-05-14T04:20:27.557Z,1271.00
2023-05-14T04:21:27.543Z,1129.00
2023-05-14T04:22:27.531Z,1150.00
2023-05-14T04:23:27.559Z,1393.00
2023-05-14T04:24:27.566Z,1401.00
2023-05-14T04:25:27.497Z,1387.00
2023-05-14T04:26:27.490Z,1422.00
2023-05-14T04:27:27.494Z,1445.00
2023-05-14T04:28:27.538Z,1458.00
2023-05-14T04:29:27.476Z,1465.00
2023-05-14T04:30:27.464Z,1697.00
2023-05-14T04:31:27.453Z,1848.00
2023-05-14T04:32:27.566Z,1770.00
2023-05-14T04:33:27.402Z,1767.00
2023-05-14T04:34:27.419Z,1953.00
2023-05-14T04:35:27.380Z,2170.00
2023-05-14T04:36:27.411Z,2352.00
2023-05-14T04:37:27.358Z,2410.00
2023-05-14T04:38:27.354Z,2378.00
2023-05-14T04:39:27.397Z,2432.00
2023-05-14T04:40:27.505Z,2551.00
2023-05-14T04:41:27.322Z,2612.00
2023-05-14T04:42:27.318Z,2589.00
2023-05-14T04:43:27.306Z,2568.00
2023-05-14T04:44:27.320Z,2614.00
2023-05-14T04:45:27.333Z,2865.00
2023-05-14T04:46:27.363Z,3143.00
2023-05-14T04:47:27.297Z,3032.00
2023-05-14T04:48:27.264Z,2944.00
2023-05-14T04:49:27.292Z,2986.00
2023-05-14T04:50:27.267Z,3088.00
2023-05-14T04:51:27.238Z,2592.00
2023-05-14T04:52:27.277Z,3188.00
2023-05-14T04:53:27.241Z,3372.00
2023-05-14T04:54:27.227Z,2618.00
2023-05-14T04:55:27.210Z,2198.00
2023-05-14T04:56:27.163Z,3714.00
2023-05-14T04:57:27.171Z,4402.00
2023-05-14T04:58:27.192Z,4432.00
2023-05-14T04:59:27.157Z,4309.00
2023-05-14T05:00:27.379Z,4787.00
2023-05-14T05:01:27.177Z,5165.00
2023-05-14T05:02:27.118Z,4939.00
2023-05-14T05:03:27.192Z,4429.00
2023-05-14T05:04:27.097Z,4903.00
2023-05-14T05:05:27.127Z,4670.00
2023-05-14T05:06:27.083Z,4254.00
2023-05-14T05:07:27.090Z,3695.00
2023-05-14T05:08:27.103Z,3554.00
2023-05-14T05:09:27.050Z,3419.00
2023-05-14T05:10:27.102Z,3605.00
2023-05-14T05:11:27.047Z,3284.00
2023-05-14T05:12:27.011Z,3421.00
2023-05-14T05:13:27.051Z,4222.00
2023-05-14T05:14:27.020Z,2970.00
2023-05-14T05:15:26.970Z,3156.00
2023-05-14T05:16:27.090Z,5953.00
2023-05-14T05:17:26.997Z,6576.00
2023-05-14T05:18:27.040Z,6052.00
2023-05-14T05:19:39.537Z,5642.00
2023-05-14T05:20:26.925Z,6035.00
2023-05-14T05:21:26.916Z,7173.00
2023-05-14T05:22:26.904Z,8563.00
2023-05-14T05:23:26.918Z,8906.00
2023-05-14T05:24:27.327Z,10886.00
2023-05-14T05:25:26.866Z,11957.00
2023-05-14T05:26:26.880Z,10290.00
2023-05-14T05:27:26.850Z,9066.00
2023-05-14T05:28:26.877Z,10738.00
2023-05-14T05:29:26.860Z,10394.00
2023-05-14T05:30:26.862Z,11931.00
2023-05-14T05:31:26.835Z,10963.00
2023-05-14T05:32:26.813Z,10860.00
2023-05-14T05:33:26.850Z,12589.00
2023-05-14T05:34:26.806Z,11524.00
2023-05-14T05:35:26.800Z,10572.00
2023-05-14T05:36:26.744Z,11499.00
2023-05-14T05:37:26.791Z,12207.00
2023-05-14T05:38:26.754Z,11662.00
2023-05-14T05:39:26.742Z,10334.00
2023-05-14T05:40:26.719Z,10125.00
2023-05-14T05:41:26.694Z,10330.00
2023-05-14T05:42:26.734Z,11648.00
2023-05-14T05:43:26.671Z,12483.00
2023-05-14T05:44:26.682Z,11248.00
2023-05-14T05:45:26.672Z,12047.00
2023-05-14T05:46:26.687Z,13186.00
2023-05-14T05:47:26.736Z,13410.00
2023-05-14T05:48:26.647Z,11975.00
2023-05-14T05:49:26.636Z,12392.00
2023-05-14T05:50:26.595Z,12907.00
2023-05-14T05:51:26.617Z,11399.00
2023-05-14T05:52:26.626Z,11379.00
2023-05-14T05:53:26.612Z,11710.00
2023-05-14T05:54:26.560Z,11814.00
2023-05-14T05:55:26.552Z,11840.00
2023-05-14T05:56:26.557Z,12069.00
2023-05-14T05:57:26.533Z,12311.00
2023-05-14T05:58:26.524Z,11090.00
2023-05-14T05:59:26.541Z,12435.00
2023-05-14T06:00:26.828Z,17252.00
2023-05-14T06:01:26.566Z,15072.00
2023-05-14T06:02:26.644Z,10192.00
2023-05-14T06:03:26.527Z,9256.00
2023-05-14T06:04:26.484Z,9091.00
2023-05-14T06:05:26.569Z,9008.00
2023-05-14T06:06:26.478Z,9056.00
2023-05-14T06:07:26.458Z,9127.00
2023-05-14T06:08:26.427Z,9342.00
2023-05-14T06:09:26.418Z,9173.00
2023-05-14T06:10:26.579Z,9167.00
2023-05-14T06:11:26.392Z,9235.00
2023-05-14T06:12:26.419Z,9299.00
2023-05-14T06:13:26.379Z,9377.00
2023-05-14T06:14:26.395Z,9177.00
2023-05-14T06:15:26.371Z,9279.00
2023-05-14T06:16:26.363Z,9332.00
2023-05-14T06:17:26.359Z,9466.00
2023-05-14T06:18:26.342Z,9590.00
2023-05-14T06:19:26.370Z,9704.00
2023-05-14T06:20:26.597Z,9896.00
2023-05-14T06:21:26.293Z,10037.00
2023-05-14T06:22:26.279Z,10062.00
2023-05-14T06:23:26.292Z,10484.00
2023-05-14T06:24:26.282Z,10573.00
2023-05-14T06:25:26.267Z,10561.00
2023-05-14T06:26:26.241Z,10611.00
2023-05-14T06:27:26.220Z,10724.00
2023-05-14T06:28:26.215Z,10986.00
2023-05-14T06:29:26.259Z,11024.00
2023-05-14T06:30:26.317Z,11239.00
2023-05-14T06:31:26.242Z,11488.00
2023-05-14T06:32:26.236Z,11247.00
2023-05-14T06:33:26.227Z,12283.00
2023-05-14T06:34:26.198Z,10716.00
2023-05-14T06:35:26.155Z,13343.00
2023-05-14T06:36:26.154Z,13839.00
2023-05-14T06:37:26.124Z,14968.00
2023-05-14T06:38:26.150Z,14850.00
2023-05-14T06:39:26.129Z,16012.00
2023-05-14T06:40:26.324Z,17672.00
2023-05-14T06:41:26.103Z,17860.00
2023-05-14T06:42:26.084Z,17710.00
2023-05-14T06:43:26.124Z,18723.00
2023-05-14T06:44:26.055Z,17701.00
2023-05-14T06:45:26.053Z,18930.00
2023-05-14T06:46:26.043Z,20650.00
2023-05-14T06:47:26.110Z,20470.00
2023-05-14T06:48:26.101Z,26352.00
2023-05-14T06:49:26.032Z,28778.00
2023-05-14T06:50:26.043Z,27124.00
2023-05-14T06:51:25.981Z,28760.00
2023-05-14T06:52:26.025Z,34349.00
2023-05-14T06:53:25.995Z,28835.00
2023-05-14T06:54:25.996Z,21768.00
2023-05-14T06:55:25.974Z,22124.00
2023-05-14T06:56:25.935Z,20640.00
2023-05-14T06:57:25.922Z,20405.00
2023-05-14T06:58:25.955Z,19646.00
2023-05-14T06:59:25.913Z,19095.00
2023-05-14T07:00:26.178Z,19049.00
2023-05-14T07:01:25.940Z,18281.00
2023-05-14T07:02:25.961Z,18910.00
2023-05-14T07:03:25.866Z,18410.00
2023-05-14T07:04:25.887Z,19854.00
2023-05-14T07:05:25.846Z,24382.00
2023-05-14T07:06:25.865Z,22318.00
2023-05-14T07:07:25.875Z,20967.00
2023-05-14T07:08:25.838Z,20933.00
2023-05-14T07:09:25.824Z,19872.00
2023-05-14T07:10:25.969Z,20719.00
2023-05-14T07:11:25.795Z,21177.00
2023-05-14T07:12:25.823Z,22084.00
2023-05-14T07:13:27.704Z,24623.00
2023-05-14T07:14:25.811Z,25001.00
2023-05-14T07:15:25.783Z,27387.00
2023-05-14T07:16:25.818Z,28018.00
2023-05-14T07:17:25.846Z,73175.00
2023-05-14T07:18:25.722Z,31686.00
2023-05-14T07:19:25.733Z,28810.00
2023-05-14T07:20:26.053Z,73233.00
2023-05-14T07:21:25.691Z,35322.00
2023-05-14T07:22:25.729Z,34149.00
2023-05-14T07:23:25.686Z,75575.00
2023-05-14T07:24:25.693Z,75989.00
2023-05-14T07:25:25.686Z,76857.00
2023-05-14T07:26:25.716Z,77056.00
2023-05-14T07:27:25.665Z,76110.00
2023-05-14T07:28:25.629Z,75919.00
2023-05-14T07:29:25.637Z,76480.00
2023-05-14T07:30:25.906Z,76639.00
2023-05-14T07:31:25.676Z,78381.00
2023-05-14T07:32:25.649Z,77588.00
2023-05-14T07:33:25.580Z,75877.00
2023-05-14T07:34:25.618Z,77749.00
2023-05-14T07:35:25.559Z,78873.00
2023-05-14T07:36:25.545Z,77985.00
2023-05-14T07:37:25.534Z,76642.00
2023-05-14T07:38:25.528Z,78239.00
2023-05-14T07:39:25.620Z,79946.00
2023-05-14T07:40:25.877Z,78996.00
2023-05-14T07:41:25.503Z,78622.00
2023-05-14T07:42:35.368Z,77396.00
2023-05-14T07:43:25.531Z,76351.00
2023-05-14T07:44:25.526Z,77764.00
2023-05-14T07:45:25.561Z,77292.00
2023-05-14T07:46:26.293Z,79253.00
2023-05-14T07:47:26.313Z,77426.00
2023-05-14T07:48:25.514Z,76632.00
2023-05-14T07:49:25.434Z,79228.00
2023-05-14T07:50:25.576Z,80457.00
2023-05-14T07:51:25.406Z,79965.00
2023-05-14T07:52:25.477Z,80518.00
2023-05-14T07:53:25.410Z,81215.00
2023-05-14T07:54:25.430Z,80040.00
2023-05-14T07:55:25.369Z,78151.00
2023-05-14T07:56:25.360Z,77853.00
2023-05-14T07:57:25.379Z,80156.00
2023-05-14T07:58:25.346Z,81354.00
2023-05-14T07:59:25.347Z,79360.00
2023-05-14T08:00:25.539Z,81107.00
2023-05-14T08:01:25.311Z,80962.00
2023-05-14T08:02:25.454Z,79517.00
2023-05-14T08:03:25.446Z,77809.00
2023-05-14T08:04:25.393Z,79210.00
2023-05-14T08:05:25.281Z,80159.00
2023-05-14T08:06:25.298Z,80319.00
2023-05-14T08:07:25.311Z,83039.00
2023-05-14T08:08:25.256Z,81646.00
2023-05-14T08:09:25.276Z,76700.00
2023-05-14T08:10:25.521Z,82884.00
2023-05-14T08:11:25.274Z,81442.00
2023-05-14T08:12:25.203Z,82006.00
2023-05-14T08:13:25.239Z,80337.00
2023-05-14T08:14:25.200Z,82837.00
2023-05-14T08:15:27.598Z,82571.00
2023-05-14T08:16:25.280Z,81724.00
2023-05-14T08:17:25.178Z,69709.00
2023-05-14T08:18:25.193Z,17457.00
2023-05-14T08:19:25.178Z,80785.00
2023-05-14T08:20:25.421Z,76319.00
2023-05-14T08:21:25.133Z,72757.00
2023-05-14T08:22:25.137Z,74706.00
2023-05-14T08:23:25.142Z,81168.00
2023-05-14T08:24:25.114Z,80042.00
2023-05-14T08:25:25.140Z,79510.00
2023-05-14T08:26:25.114Z,76752.00
2023-05-14T08:27:25.072Z,80095.00
2023-05-14T08:28:25.072Z,75615.00
2023-05-14T08:29:25.072Z,68794.00
2023-05-14T08:30:25.538Z,30689.00
2023-05-14T08:31:25.152Z,24381.00
2023-05-14T08:32:25.055Z,16131.00
2023-05-14T08:33:25.059Z,15861.00
2023-05-14T08:34:25.021Z,14142.00
2023-05-14T08:35:25.030Z,22879.00
2023-05-14T08:36:36.224Z,16069.00
2023-05-14T08:37:25.007Z,22974.00
2023-05-14T08:38:25.186Z,17388.00
2023-05-14T08:39:24.986Z,20357.00
2023-05-14T08:40:25.281Z,13662.00
2023-05-14T08:41:24.958Z,8454.00
2023-05-14T08:42:24.952Z,15486.00
2023-05-14T08:43:24.945Z,31001.00
2023-05-14T08:44:25.089Z,13150.00
2023-05-14T08:45:24.917Z,12869.00
2023-05-14T08:46:25.606Z,25656.00
2023-05-14T08:47:24.957Z,22505.00
2023-05-14T08:48:24.965Z,12881.00
2023-05-14T08:49:25.108Z,6371.00
2023-05-14T08:50:25.262Z,21722.00
2023-05-14T08:51:24.867Z,9114.00
2023-05-14T08:52:24.998Z,25130.00
2023-05-14T08:53:24.852Z,74157.00
2023-05-14T08:54:24.860Z,76775.00
2023-05-14T08:55:24.808Z,79225.00
2023-05-14T08:56:24.833Z,74117.00
2023-05-14T08:57:24.963Z,76654.00
2023-05-14T08:58:24.809Z,80217.00
2023-05-14T08:59:24.918Z,77432.00
2023-05-14T09:00:25.172Z,75981.00
2023-05-14T09:01:25.468Z,76641.00
2023-05-14T09:02:25.017Z,77389.00
2023-05-14T09:03:24.769Z,78299.00
2023-05-14T09:04:24.712Z,81851.00
2023-05-14T09:05:24.721Z,75834.00
2023-05-14T09:06:24.733Z,79299.00
2023-05-14T09:07:24.685Z,72741.00
2023-05-14T09:08:24.688Z,34275.00
2023-05-14T09:09:24.676Z,35314.00
2023-05-14T09:10:24.903Z,33675.00
2023-05-14T09:11:24.666Z,7327.00
2023-05-14T09:12:24.660Z,39172.00
2023-05-14T09:13:25.816Z,28648.00
2023-05-14T09:14:24.654Z,23780.00
2023-05-14T09:15:24.612Z,78716.00
2023-05-14T09:16:24.749Z,71361.00
2023-05-14T09:17:24.706Z,29865.00
2023-05-14T09:18:24.632Z,11477.00
2023-05-14T09:19:24.584Z,81939.00
2023-05-14T09:20:25.167Z,67145.00
2023-05-14T09:21:24.573Z,14825.00
2023-05-14T09:22:34.660Z,81410.00
2023-05-14T09:23:24.688Z,81966.00
2023-05-14T09:24:24.585Z,81240.00
2023-05-14T09:25:24.512Z,81558.00
2023-05-14T09:26:24.543Z,62000.00
2023-05-14T09:27:24.648Z,13448.00
2023-05-14T09:28:24.483Z,14952.00
2023-05-14T09:29:24.463Z,13767.00
2023-05-14T09:30:24.614Z,9369.00
2023-05-14T09:31:24.581Z,80606.00
2023-05-14T09:32:24.550Z,81517.00
2023-05-14T09:33:24.415Z,78611.00
2023-05-14T09:34:24.425Z,83007.00
2023-05-14T09:35:24.407Z,81296.00
2023-05-14T09:36:24.532Z,79714.00
2023-05-14T09:37:34.498Z,80309.00
2023-05-14T09:38:24.443Z,62621.00
2023-05-14T09:39:24.388Z,17943.00
2023-05-14T09:40:25.152Z,14133.00
2023-05-14T09:41:24.365Z,11924.00
2023-05-14T09:42:24.356Z,11401.00
2023-05-14T09:43:24.322Z,11313.00
2023-05-14T09:44:24.451Z,11581.00
2023-05-14T09:45:24.322Z,11971.00
2023-05-14T09:46:24.311Z,12246.00
2023-05-14T09:47:24.402Z,12085.00
2023-05-14T09:48:24.392Z,12027.00
2023-05-14T09:49:24.345Z,16269.00
2023-05-14T09:50:24.471Z,13680.00
2023-05-14T09:51:24.306Z,10074.00
2023-05-14T09:52:24.242Z,35719.00
2023-05-14T09:53:24.383Z,33083.00
2023-05-14T09:54:24.236Z,8232.00
2023-05-14T09:55:24.240Z,67291.00
2023-05-14T09:56:24.198Z,29330.00
2023-05-14T09:57:24.176Z,22999.00
2023-05-14T09:58:25.119Z,17980.00
2023-05-14T09:59:24.169Z,18992.00
2023-05-14T10:00:24.309Z,8661.00
2023-05-14T10:01:24.222Z,82827.00
2023-05-14T10:02:24.214Z,82218.00
2023-05-14T10:03:24.270Z,79934.00
2023-05-14T10:04:24.206Z,78496.00
2023-05-14T10:05:24.097Z,81904.00
2023-05-14T10:06:24.144Z,70330.00
2023-05-14T10:07:24.211Z,33130.00
2023-05-14T10:08:24.109Z,13159.00
2023-05-14T10:09:24.388Z,21364.00
2023-05-14T10:10:24.459Z,13609.00
2023-05-14T10:11:24.044Z,10569.00
2023-05-14T10:12:24.054Z,8658.00
2023-05-14T10:13:24.055Z,7331.00
2023-05-14T10:14:24.039Z,7023.00
2023-05-14T10:15:24.009Z,6694.00
2023-05-14T10:16:24.536Z,6477.00
2023-05-14T10:17:24.733Z,6926.00
2023-05-14T10:18:23.994Z,7161.00
2023-05-14T10:19:24.052Z,8133.00
2023-05-14T10:20:24.431Z,9131.00
2023-05-14T10:21:23.956Z,9544.00
2023-05-14T10:22:24.655Z,9682.00
2023-05-14T10:23:23.932Z,10579.00
2023-05-14T10:24:24.912Z,10994.00
2023-05-14T10:25:23.923Z,11190.00
2023-05-14T10:26:24.210Z,10825.00
2023-05-14T10:27:23.904Z,10820.00
2023-05-14T10:28:23.882Z,11348.00
2023-05-14T10:29:23.868Z,11033.00
2023-05-14T10:30:24.247Z,10309.00
2023-05-14T10:31:23.979Z,10027.00
2023-05-14T10:32:23.876Z,10104.00
2023-05-14T10:33:23.909Z,9995.00
2023-05-14T10:34:23.863Z,9176.00
2023-05-14T10:35:23.805Z,8396.00
2023-05-14T10:36:23.900Z,8277.00
2023-05-14T10:37:23.850Z,9572.00
2023-05-14T10:38:23.848Z,10047.00
2023-05-14T10:39:23.809Z,10437.00
2023-05-14T10:40:24.044Z,6952.00
2023-05-14T10:41:23.764Z,9280.00
2023-05-14T10:42:23.780Z,37643.00
2023-05-14T10:43:23.729Z,23522.00
2023-05-14T10:44:23.848Z,14565.00
2023-05-14T10:45:23.725Z,9974.00
2023-05-14T10:46:23.776Z,77414.00
2023-05-14T10:47:23.684Z,75916.00
2023-05-14T10:48:23.768Z,75317.00
2023-05-14T10:49:35.605Z,75265.00
2023-05-14T10:50:24.144Z,75379.00
2023-05-14T10:51:23.719Z,72401.00
2023-05-14T10:52:23.653Z,67896.00
2023-05-14T10:53:23.618Z,27493.00
2023-05-14T10:54:23.618Z,24164.00
2023-05-14T10:55:23.766Z,21064.00
2023-05-14T10:56:23.613Z,24026.00
2023-05-14T10:57:23.598Z,19992.00
2023-05-14T10:58:23.572Z,16444.00
2023-05-14T10:59:23.589Z,26924.00
2023-05-14T11:00:23.697Z,18767.00
2023-05-14T11:01:23.589Z,16064.00
2023-05-14T11:02:23.592Z,6173.00
2023-05-14T11:03:23.616Z,17317.00
2023-05-14T11:04:23.582Z,63722.00
2023-05-14T11:05:23.510Z,18717.00
2023-05-14T11:06:23.495Z,15225.00
2023-05-14T11:07:23.496Z,13833.00
2023-05-14T11:08:26.463Z,14014.00
2023-05-14T11:09:23.513Z,22519.00
2023-05-14T11:10:23.716Z,18154.00
2023-05-14T11:11:23.450Z,15331.00
2023-05-14T11:12:23.435Z,15162.00
2023-05-14T11:13:23.487Z,14343.00
2023-05-14T11:14:23.420Z,13286.00
2023-05-14T11:15:23.653Z,12572.00
2023-05-14T11:16:24.133Z,12581.00
2023-05-14T11:17:23.654Z,12485.00
2023-05-14T11:18:23.405Z,13495.00
2023-05-14T11:19:23.363Z,6549.00
2023-05-14T11:20:23.758Z,65435.00
2023-05-14T11:21:23.396Z,23754.00
2023-05-14T11:22:23.365Z,18396.00
2023-05-14T11:23:23.361Z,12538.00
2023-05-14T11:24:23.314Z,12084.00
2023-05-14T11:25:23.307Z,12286.00
2023-05-14T11:26:23.399Z,12869.00
2023-05-14T11:27:23.309Z,12290.00
2023-05-14T11:28:23.310Z,5767.00
2023-05-14T11:29:23.265Z,23631.00
2023-05-14T11:30:23.548Z,13217.00
2023-05-14T11:31:23.294Z,10917.00
2023-05-14T11:32:23.272Z,10077.00
2023-05-14T11:33:23.227Z,12985.00
2023-05-14T11:34:23.214Z,12209.00
2023-05-14T11:35:23.214Z,11745.00
2023-05-14T11:36:23.244Z,11058.00
2023-05-14T11:37:23.236Z,9767.00
2023-05-14T11:38:23.315Z,9079.00
2023-05-14T11:39:23.187Z,8489.00
2023-05-14T11:40:23.375Z,8228.00
2023-05-14T11:41:23.581Z,7987.00
2023-05-14T11:42:23.155Z,7782.00
2023-05-14T11:43:23.154Z,7523.00
2023-05-14T11:44:23.126Z,7647.00
2023-05-14T11:45:23.180Z,7370.00
2023-05-14T11:46:23.140Z,8217.00
2023-05-14T11:47:23.089Z,8162.00
2023-05-14T11:48:23.087Z,8217.00
2023-05-14T11:49:23.076Z,8316.00
2023-05-14T11:50:23.455Z,8426.00
2023-05-14T11:51:23.093Z,8620.00
2023-05-14T11:52:23.059Z,8601.00
2023-05-14T11:53:23.014Z,10248.00
2023-05-14T11:54:23.016Z,11040.00
2023-05-14T11:55:23.021Z,10400.00
2023-05-14T11:56:23.033Z,13413.00
2023-05-14T11:57:23.001Z,11448.00
2023-05-14T11:58:23.016Z,11250.00
2023-05-14T11:59:22.967Z,11351.00
2023-05-14T12:00:23.099Z,11534.00
2023-05-14T12:01:22.973Z,11746.00
2023-05-14T12:02:23.005Z,11899.00
2023-05-14T12:03:23.175Z,12066.00
2023-05-14T12:04:22.963Z,12538.00
2023-05-14T12:05:23.014Z,12442.00
2023-05-14T12:06:22.899Z,11609.00
2023-05-14T12:07:22.868Z,11331.00
2023-05-14T12:08:22.875Z,11331.00
2023-05-14T12:09:22.880Z,11008.00
2023-05-14T12:10:23.128Z,11450.00
2023-05-14T12:11:22.992Z,10963.00
2023-05-14T12:12:22.839Z,10074.00
2023-05-14T12:13:22.834Z,9544.00
2023-05-14T12:14:22.867Z,9276.00
2023-05-14T12:15:22.792Z,9426.00